TimeAKDT,TemperatureF,Dew PointF,Humidity,Sea Level PressureIn,VisibilityMPH,Wind Direction,Wind SpeedMPH,Gust SpeedMPH,PrecipitationIn,Events,Conditions,WindDirDegrees,DateUTC
12:16 AM,10.4,5.0,79,29.82,9.0,South,11.5,-,N/A,,Overcast,180,2013-05-18 08:16:00
12:36 AM,10.4,6.8,85,29.82,4.0,South,12.7,-,N/A,,Overcast,180,2013-05-18 08:36:00
12:56 AM,10.4,6.8,85,29.82,5.0,South,13.8,-,N/A,,Mostly Cloudy,180,2013-05-18 08:56:00
1:36 AM,10.4,6.8,85,29.83,3.0,South,15.0,-,N/A,,Overcast,180,2013-05-18 09:36:00
1:56 AM,10.4,6.8,85,29.83,9.0,South,16.1,-,N/A,,Mostly Cloudy,190,2013-05-18 09:56:00
2:56 AM,10.4,6.8,85,29.84,10.0,South,13.8,-,N/A,,Overcast,180,2013-05-18 10:56:00
3:16 AM,8.6,5.0,85,29.83,10.0,South,13.8,-,N/A,,Mostly Cloudy,180,2013-05-18 11:16:00
4:16 AM,10.4,6.8,85,29.83,10.0,South,12.7,-,N/A,,Overcast,180,2013-05-18 12:16:00
4:36 AM,10.4,6.8,85,29.84,10.0,South,12.7,-,N/A,,Mostly Cloudy,180,2013-05-18 12:36:00
4:56 AM,10.4,6.8,85,29.84,10.0,South,11.5,-,N/A,,Mostly Cloudy,180,2013-05-18 12:56:00
5:16 AM,10.4,6.8,85,29.84,4.0,South,12.7,-,N/A,,Overcast,180,2013-05-18 13:16:00
5:36 AM,10.4,6.8,85,29.84,9.0,South,10.4,-,N/A,,Overcast,180,2013-05-18 13:36:00
5:56 AM,10.4,6.8,85,29.84,2.5,South,12.7,-,N/A,,Mostly Cloudy,180,2013-05-18 13:56:00
6:36 AM,10.4,6.8,85,29.84,5.0,South,10.4,-,N/A,,Overcast,190,2013-05-18 14:36:00
7:56 AM,10.4,6.8,85,29.85,3.0,South,8.1,-,N/A,,Mostly Cloudy,170,2013-05-18 15:56:00
8:16 AM,12.2,6.8,79,29.85,5.0,SSE,5.8,-,N/A,,Overcast,150,2013-05-18 16:16:00
8:56 AM,8.6,3.2,79,29.85,3.0,East,6.9,-,N/A,,Overcast,100,2013-05-18 16:56:00
9:16 AM,8.6,3.2,79,29.85,3.0,ESE,6.9,-,N/A,,Overcast,110,2013-05-18 17:16:00
9:36 AM,8.6,3.2,79,29.85,8.0,ESE,6.9,-,N/A,,Overcast,110,2013-05-18 17:36:00
9:56 AM,8.6,1.4,73,29.85,10.0,ESE,5.8,-,N/A,,Mostly Cloudy,120,2013-05-18 17:56:00
10:16 AM,8.6,3.2,79,29.85,10.0,SE,10.4,-,N/A,,Overcast,130,2013-05-18 18:16:00
10:36 AM,8.6,3.2,79,29.85,10.0,ESE,9.2,-,N/A,,Scattered Clouds,120,2013-05-18 18:36:00
10:56 AM,8.6,3.2,79,29.84,9.0,ESE,10.4,-,N/A,,Clear,120,2013-05-18 18:56:00
11:16 AM,10.4,6.8,85,29.84,4.0,ESE,12.7,-,N/A,,Partly Cloudy,120,2013-05-18 19:16:00
11:36 AM,12.2,8.6,85,29.84,1.2,ESE,13.8,-,N/A,,Clear,120,2013-05-18 19:36:00
11:56 AM,12.2,8.6,85,29.84,8.0,ESE,11.5,-,N/A,,Clear,120,2013-05-18 19:56:00
12:16 PM,14.0,8.6,79,29.84,10.0,SE,16.1,-,N/A,,Clear,130,2013-05-18 20:16:00
12:36 PM,14.0,10.4,86,29.84,10.0,SE,17.3,-,N/A,,Partly Cloudy,130,2013-05-18 20:36:00
12:56 PM,15.8,10.4,79,29.84,10.0,SE,12.7,-,N/A,,Clear,130,2013-05-18 20:56:00
1:16 PM,15.8,10.4,79,29.84,10.0,SE,11.5,-,N/A,,Clear,130,2013-05-18 21:16:00
1:36 PM,15.8,12.2,86,29.84,10.0,SE,11.5,-,N/A,,Clear,130,2013-05-18 21:36:00
1:56 PM,17.6,12.2,79,29.84,10.0,SE,12.7,-,N/A,,Mostly Cloudy,130,2013-05-18 21:56:00
2:16 PM,17.6,12.2,79,29.84,10.0,SE,12.7,-,N/A,,Mostly Cloudy,130,2013-05-18 22:16:00
2:36 PM,17.6,12.2,79,29.84,10.0,SE,10.4,-,N/A,,Scattered Clouds,130,2013-05-18 22:36:00
2:56 PM,17.6,12.2,79,29.84,10.0,SE,10.4,-,N/A,,Scattered Clouds,140,2013-05-18 22:56:00
3:16 PM,17.6,12.2,79,29.84,10.0,ESE,9.2,-,N/A,,Mostly Cloudy,110,2013-05-18 23:16:00
3:36 PM,19.4,14.0,80,29.84,10.0,SE,9.2,-,N/A,,Overcast,130,2013-05-18 23:36:00
3:56 PM,19.4,14.0,80,29.84,10.0,ESE,9.2,-,N/A,,Mostly Cloudy,120,2013-05-18 23:56:00
4:16 PM,19.4,15.8,86,29.84,10.0,SE,11.5,-,N/A,,Scattered Clouds,130,2013-05-19 00:16:00
4:36 PM,19.4,15.8,86,29.84,10.0,ESE,11.5,-,N/A,,Partly Cloudy,120,2013-05-19 00:36:00
4:56 PM,21.2,17.6,86,29.84,10.0,SE,11.5,-,N/A,,Scattered Clouds,130,2013-05-19 00:56:00
5:16 PM,23.0,17.6,80,29.84,10.0,SE,6.9,-,N/A,,Overcast,140,2013-05-19 01:16:00
5:36 PM,23.0,17.6,80,29.84,10.0,SSE,10.4,-,N/A,,Overcast,160,2013-05-19 01:36:00
5:56 PM,24.8,19.4,80,29.84,10.0,SE,6.9,-,N/A,,Overcast,140,2013-05-19 01:56:00
6:16 PM,24.8,19.4,80,29.84,10.0,SE,10.4,-,N/A,,Overcast,140,2013-05-19 02:16:00
6:36 PM,26.6,21.2,80,29.84,10.0,South,9.2,-,N/A,,Overcast,170,2013-05-19 02:36:00
6:56 PM,24.8,17.6,74,29.84,10.0,SSE,8.1,-,N/A,,Scattered Clouds,160,2013-05-19 02:56:00
7:16 PM,24.8,17.6,74,29.85,10.0,South,9.2,-,N/A,,Clear,170,2013-05-19 03:16:00
7:36 PM,23.0,17.6,80,29.85,10.0,South,9.2,-,N/A,,Clear,180,2013-05-19 03:36:00
7:56 PM,23.0,17.6,80,29.86,10.0,SSW,6.9,-,N/A,,Partly Cloudy,210,2013-05-19 03:56:00
8:16 PM,21.2,17.6,86,29.86,10.0,South,6.9,-,N/A,,Clear,190,2013-05-19 04:16:00
8:36 PM,21.2,17.6,86,29.86,10.0,SSW,6.9,-,N/A,,Clear,200,2013-05-19 04:36:00
8:56 PM,21.2,17.6,86,29.86,10.0,SSW,5.8,-,N/A,,Clear,200,2013-05-19 04:56:00
9:16 PM,19.4,15.8,86,29.87,10.0,SSW,6.9,-,N/A,,Clear,200,2013-05-19 05:16:00
9:36 PM,19.4,15.8,86,29.88,10.0,SSW,8.1,-,N/A,,Clear,200,2013-05-19 05:36:00
9:56 PM,19.4,15.8,86,29.89,10.0,SSW,8.1,-,N/A,,Clear,200,2013-05-19 05:56:00
10:16 PM,19.4,15.8,86,29.89,10.0,South,6.9,-,N/A,,Clear,190,2013-05-19 06:16:00
10:36 PM,17.6,12.2,79,29.90,10.0,South,6.9,-,N/A,,Clear,180,2013-05-19 06:36:00
10:56 PM,17.6,12.2,79,29.91,10.0,SSE,8.1,-,N/A,,Mostly Cloudy,160,2013-05-19 06:56:00
11:16 PM,15.8,12.2,86,29.91,10.0,SE,6.9,-,N/A,,Mostly Cloudy,140,2013-05-19 07:16:00
11:36 PM,15.8,10.4,79,29.92,10.0,SE,10.4,-,N/A,,Mostly Cloudy,140,2013-05-19 07:36:00
11:56 PM,15.8,12.2,86,29.92,10.0,SE,10.4,-,N/A,,Overcast,130,2013-05-19 07:56:00